createdAt,value
2022-11-24T00:01:30.856Z,53.17
2022-11-24T00:04:07.577Z,49.67
2022-11-24T00:06:36.233Z,52.17
2022-11-24T00:09:05.710Z,57.63
2022-11-24T00:11:36.644Z,46.10
2022-11-24T00:14:06.554Z,45.08
2022-11-24T00:16:37.584Z,53.63
2022-11-24T00:19:10.391Z,52.10
2022-11-24T00:21:38.798Z,48.60
2022-11-24T00:24:06.827Z,47.30
2022-11-24T00:26:37.555Z,49.10
2022-11-24T00:29:07.977Z,48.97
2022-11-24T00:31:41.642Z,43.40
2022-11-24T00:34:14.830Z,41.15
2022-11-24T00:36:43.250Z,36.88
2022-11-24T00:39:15.199Z,35.58
2022-11-24T00:41:43.686Z,38.85
2022-11-24T00:44:11.315Z,36.58
2022-11-24T00:46:38.979Z,45.50
2022-11-24T00:49:06.799Z,45.72
2022-11-24T00:51:34.206Z,43.97
2022-11-24T00:54:02.637Z,50.25
2022-11-24T00:56:30.726Z,50.75
2022-11-24T00:58:58.476Z,48.53
2022-11-24T01:01:30.329Z,42.53
2022-11-24T01:04:03.477Z,50.38
2022-11-24T01:06:32.846Z,43.92
2022-11-24T01:09:00.494Z,37.08
2022-11-24T01:11:55.346Z,39.28
2022-11-24T01:14:25.335Z,37.08
2022-11-24T01:16:53.180Z,35.65
2022-11-24T01:19:21.611Z,29.63
2022-11-24T01:21:48.988Z,26.35
2022-11-24T01:24:16.899Z,34.25
2022-11-24T01:26:44.236Z,35.63
2022-11-24T01:29:12.461Z,39.03
2022-11-24T01:31:40.172Z,40.58
2022-11-24T01:34:07.997Z,36.20
2022-11-24T01:36:35.317Z,33.10
2022-11-24T01:39:02.904Z,42.80
2022-11-24T01:41:30.247Z,45.65
2022-11-24T01:43:58.209Z,40.38
2022-11-24T01:46:47.966Z,41.40
2022-11-24T01:49:35.752Z,39.75
2022-11-24T01:52:41.308Z,34.47
2022-11-24T01:55:23.209Z,39.30
2022-11-24T01:57:59.838Z,33.15
2022-11-24T02:00:27.794Z,32.00
2022-11-24T02:02:55.201Z,39.08
2022-11-24T02:05:46.234Z,39.28
2022-11-24T02:08:40.695Z,44.85
2022-11-24T02:11:08.392Z,37.25
2022-11-24T02:13:38.633Z,38.47
2022-11-24T02:16:10.445Z,42.45
2022-11-24T02:18:40.390Z,36.88
2022-11-24T02:21:08.764Z,33.47
2022-11-24T02:23:55.584Z,40.40
2022-11-24T02:26:47.154Z,44.22
2022-11-24T02:29:15.527Z,39.47
2022-11-24T02:31:51.258Z,37.60
2022-11-24T02:34:18.596Z,37.85
2022-11-24T02:36:46.154Z,43.22
2022-11-24T02:39:14.911Z,42.83
2022-11-24T02:41:51.610Z,38.50
2022-11-24T02:44:24.920Z,38.25
2022-11-24T02:47:07.276Z,39.58
2022-11-24T02:49:34.597Z,45.50
2022-11-24T02:52:03.406Z,44.40
2022-11-24T02:54:31.234Z,46.33
2022-11-24T02:56:59.316Z,41.75
2022-11-24T02:59:26.741Z,41.13
2022-11-24T03:01:54.412Z,38.15
2022-11-24T03:04:21.806Z,43.60
2022-11-24T03:06:49.573Z,40.80
2022-11-24T03:09:16.858Z,37.22
2022-11-24T03:11:44.547Z,28.75
2022-11-24T03:14:11.791Z,33.53
2022-11-24T03:16:39.393Z,28.85
2022-11-24T03:19:06.894Z,35.53
2022-11-24T03:21:36.996Z,33.75
2022-11-24T03:24:04.655Z,35.03
2022-11-24T03:26:35.154Z,42.55
2022-11-24T03:29:02.969Z,45.40
2022-11-24T03:31:30.614Z,47.38
2022-11-24T03:33:57.892Z,45.10
2022-11-24T03:36:25.537Z,43.90
2022-11-24T03:38:52.946Z,48.03
2022-11-24T03:41:20.526Z,59.92
2022-11-24T03:43:47.908Z,55.97
2022-11-24T03:46:15.554Z,52.28
2022-11-24T03:48:42.945Z,53.30
2022-11-24T03:51:10.972Z,44.58
2022-11-24T03:53:38.424Z,48.70
2022-11-24T03:56:06.410Z,51.90
2022-11-24T03:58:33.797Z,53.70
2022-11-24T04:01:01.397Z,47.63
2022-11-24T04:03:28.848Z,57.33
2022-11-24T04:05:56.554Z,50.50
2022-11-24T04:08:23.844Z,54.45
2022-11-24T04:10:54.111Z,48.97
2022-11-24T04:13:25.632Z,56.25
2022-11-24T04:15:54.256Z,50.30
2022-11-24T04:18:22.132Z,58.03
2022-11-24T04:20:52.544Z,63.78
2022-11-24T04:23:20.185Z,55.72
2022-11-24T04:25:47.843Z,45.75
2022-11-24T04:28:15.121Z,53.38
2022-11-24T04:30:45.180Z,60.40
2022-11-24T04:33:13.541Z,59.80
2022-11-24T04:35:41.295Z,57.20
2022-11-24T04:38:08.686Z,52.05
2022-11-24T04:40:37.090Z,67.63
2022-11-24T04:43:04.392Z,58.78
2022-11-24T04:45:31.965Z,69.97
2022-11-24T04:47:59.342Z,71.10
2022-11-24T04:50:26.945Z,67.15
2022-11-24T04:52:54.278Z,65.75
2022-11-24T04:55:21.788Z,73.00
2022-11-24T04:57:49.053Z,67.93
2022-11-24T05:00:17.372Z,76.25
2022-11-24T05:02:44.618Z,74.70
2022-11-24T05:05:12.244Z,74.85
2022-11-24T05:07:39.698Z,81.75
2022-11-24T05:10:26.620Z,99.25
2022-11-24T05:12:59.764Z,92.15
2022-11-24T05:15:27.694Z,84.18
2022-11-24T05:17:57.211Z,87.40
2022-11-24T05:20:25.611Z,76.38
2022-11-24T05:22:52.886Z,89.97
2022-11-24T05:25:20.734Z,86.28
2022-11-24T05:27:47.998Z,83.05
2022-11-24T05:30:15.620Z,77.78
2022-11-24T05:32:42.877Z,84.72
2022-11-24T05:35:10.462Z,80.68
2022-11-24T05:37:38.226Z,82.57
2022-11-24T05:40:07.220Z,94.03
2022-11-24T05:42:47.549Z,81.82
2022-11-24T05:45:20.001Z,78.45
2022-11-24T05:47:49.089Z,86.90
2022-11-24T05:50:20.090Z,77.50
2022-11-24T05:52:48.723Z,83.65
2022-11-24T05:55:19.652Z,76.55
2022-11-24T05:57:46.950Z,76.57
2022-11-24T06:00:18.042Z,63.00
2022-11-24T06:02:45.332Z,67.97
2022-11-24T06:05:13.068Z,68.78
2022-11-24T06:07:40.742Z,73.45
2022-11-24T06:10:08.794Z,68.07
2022-11-24T06:12:36.533Z,70.85
2022-11-24T06:15:04.591Z,73.05
2022-11-24T06:17:31.883Z,74.20
2022-11-24T06:19:59.461Z,66.68
2022-11-24T06:22:26.681Z,66.80
2022-11-24T06:24:54.179Z,66.68
2022-11-24T06:27:21.416Z,68.25
2022-11-24T06:29:48.982Z,61.53
2022-11-24T06:32:16.504Z,74.22
2022-11-24T06:34:44.433Z,70.85
2022-11-24T06:37:11.848Z,70.05
2022-11-24T06:39:39.342Z,61.55
2022-11-24T06:42:06.668Z,76.90
2022-11-24T06:44:39.517Z,69.95
2022-11-24T06:47:06.830Z,67.38
2022-11-24T06:49:34.474Z,70.03
2022-11-24T06:52:01.716Z,66.85
2022-11-24T06:54:29.253Z,66.22
2022-11-24T06:56:58.263Z,57.72
2022-11-24T06:59:30.953Z,60.83
2022-11-24T07:01:58.269Z,57.88
2022-11-24T07:04:32.416Z,55.78
2022-11-24T07:06:59.995Z,52.22
2022-11-24T07:09:27.496Z,50.88
2022-11-24T07:11:56.375Z,52.40
2022-11-24T07:14:23.955Z,54.70
2022-11-24T07:16:51.276Z,55.90
2022-11-24T07:19:24.398Z,59.60
2022-11-24T07:21:52.165Z,56.80
2022-11-24T07:24:19.730Z,55.10
2022-11-24T07:26:47.097Z,52.40
2022-11-24T07:29:15.017Z,55.92
2022-11-24T07:31:42.785Z,49.83
2022-11-24T07:34:10.499Z,49.70
2022-11-24T07:36:37.820Z,57.17
2022-11-24T07:39:07.253Z,63.47
2022-11-24T07:41:34.507Z,63.75
2022-11-24T07:44:02.116Z,55.67
2022-11-24T07:46:29.583Z,69.90
2022-11-24T07:48:57.085Z,69.10
2022-11-24T07:51:24.659Z,57.73
2022-11-24T07:53:52.295Z,63.95
2022-11-24T07:56:19.572Z,70.25
2022-11-24T07:58:52.696Z,66.95
2022-11-24T08:01:20.805Z,72.00
2022-11-24T08:03:48.560Z,66.95
2022-11-24T08:06:30.279Z,64.47
2022-11-24T08:09:03.895Z,79.03
2022-11-24T08:11:33.042Z,70.40
2022-11-24T08:14:01.184Z,63.20
2022-11-24T08:16:28.493Z,65.88
2022-11-24T08:18:56.538Z,65.45
2022-11-24T08:21:24.840Z,62.20
2022-11-24T08:23:57.598Z,72.00
2022-11-24T08:26:26.554Z,82.07
2022-11-24T08:28:57.777Z,84.87
2022-11-24T08:31:32.847Z,92.07
2022-11-24T08:34:03.201Z,96.20
2022-11-24T08:36:30.881Z,94.85
2022-11-24T08:39:00.595Z,107.57
2022-11-24T08:41:30.129Z,107.28
2022-11-24T08:43:58.799Z,100.25
2022-11-24T08:46:26.133Z,94.53
2022-11-24T08:48:55.463Z,94.60
2022-11-24T08:51:26.389Z,87.38
2022-11-24T08:53:56.928Z,78.88
2022-11-24T08:56:25.809Z,83.10
2022-11-24T08:58:55.221Z,81.07
2022-11-24T09:01:29.217Z,86.07
2022-11-24T09:03:57.191Z,94.45
2022-11-24T09:06:32.358Z,87.10
2022-11-24T09:09:00.136Z,79.15
2022-11-24T09:11:29.055Z,78.68
2022-11-24T09:13:56.834Z,82.78
2022-11-24T09:16:27.858Z,77.53
2022-11-24T09:19:02.744Z,76.72
2022-11-24T09:21:34.440Z,81.93
2022-11-24T09:24:05.238Z,86.05
2022-11-24T09:26:36.955Z,78.18
2022-11-24T09:29:08.082Z,77.90
2022-11-24T09:31:37.671Z,78.35
2022-11-24T09:34:13.097Z,92.30
2022-11-24T09:36:40.704Z,81.20
2022-11-24T09:39:08.475Z,89.55
2022-11-24T09:42:06.593Z,82.18
2022-11-24T09:45:15.394Z,79.55
2022-11-24T09:48:10.855Z,82.57
2022-11-24T09:50:39.077Z,85.22
2022-11-24T09:53:12.418Z,78.28
2022-11-24T09:55:58.621Z,81.47
2022-11-24T09:58:50.929Z,80.47
2022-11-24T10:01:24.750Z,82.72
2022-11-24T10:03:53.647Z,84.90
2022-11-24T10:06:25.145Z,83.72
2022-11-24T10:09:15.519Z,84.22
2022-11-24T10:11:58.662Z,81.88
2022-11-24T10:14:55.062Z,86.00
2022-11-24T10:18:05.440Z,86.75
2022-11-24T10:21:26.279Z,86.55
2022-11-24T10:24:54.215Z,87.40
2022-11-24T10:27:32.827Z,92.35
2022-11-24T10:30:01.783Z,86.80
2022-11-24T10:32:46.001Z,85.80
2022-11-24T10:35:26.620Z,90.88
2022-11-24T10:38:17.291Z,85.93
2022-11-24T10:40:59.596Z,86.85
2022-11-24T10:43:29.048Z,83.88
2022-11-24T10:46:19.812Z,80.68
2022-11-24T10:49:00.617Z,86.50
2022-11-24T10:51:56.861Z,81.93
2022-11-24T10:54:24.647Z,81.63
2022-11-24T10:56:55.514Z,78.13
2022-11-24T10:59:25.578Z,79.97
2022-11-24T11:01:53.780Z,79.78
2022-11-24T11:04:35.022Z,80.45
2022-11-24T11:07:22.806Z,80.40
2022-11-24T11:09:50.865Z,81.55
2022-11-24T11:12:43.312Z,76.78
2022-11-24T11:15:26.567Z,80.93
2022-11-24T11:17:59.650Z,83.72
2022-11-24T11:20:35.181Z,77.43
2022-11-24T11:23:19.103Z,74.55
2022-11-24T11:25:46.318Z,75.90
2022-11-24T11:28:29.783Z,79.63
2022-11-24T11:31:22.001Z,92.97
2022-11-24T11:34:10.685Z,87.40
2022-11-24T11:36:47.722Z,89.80
2022-11-24T11:39:32.162Z,86.07
2022-11-24T11:43:00.188Z,73.30
2022-11-24T11:45:26.764Z,83.72
2022-11-24T11:47:59.536Z,84.20
2022-11-24T11:51:21.832Z,73.93
2022-11-24T11:54:44.307Z,76.20
2022-11-24T11:57:53.421Z,76.07
2022-11-24T12:00:22.435Z,69.72
2022-11-24T12:03:36.293Z,76.35
2022-11-24T12:06:45.840Z,69.85
2022-11-24T12:09:56.894Z,76.57
2022-11-24T12:12:58.138Z,78.78
2022-11-24T12:15:50.246Z,73.72
2022-11-24T12:18:57.585Z,80.13
2022-11-24T12:21:45.337Z,79.00
2022-11-24T12:24:21.976Z,68.45
2022-11-24T12:27:23.126Z,68.47
2022-11-24T12:30:08.967Z,71.55
2022-11-24T12:33:05.186Z,66.10
2022-11-24T12:35:56.045Z,70.80
2022-11-24T12:38:39.552Z,68.57
2022-11-24T12:41:43.250Z,68.65
2022-11-24T12:44:35.393Z,63.72
2022-11-24T12:47:52.946Z,66.05
2022-11-24T12:50:27.350Z,68.40
2022-11-24T12:53:16.102Z,68.22
2022-11-24T12:55:45.540Z,77.78
2022-11-24T12:58:52.295Z,81.82
2022-11-24T13:01:44.317Z,79.35
2022-11-24T13:04:23.416Z,68.75
2022-11-24T13:07:04.838Z,65.30
2022-11-24T13:09:32.201Z,59.72
2022-11-24T13:12:26.314Z,57.42
2022-11-24T13:14:53.548Z,56.33
2022-11-24T13:17:43.478Z,56.90
2022-11-24T13:20:19.452Z,59.42
2022-11-24T13:22:54.586Z,54.85
2022-11-24T13:25:30.547Z,62.20
2022-11-24T13:28:01.048Z,59.13
2022-11-24T13:30:34.285Z,56.85
2022-11-24T13:33:32.216Z,62.03
2022-11-24T13:36:02.323Z,62.50
2022-11-24T13:38:45.066Z,57.05
2022-11-24T13:41:34.290Z,69.13
2022-11-24T13:44:13.957Z,64.05
2022-11-24T13:47:06.822Z,59.78
2022-11-24T13:49:43.127Z,67.10
2022-11-24T13:53:06.572Z,62.08
2022-11-24T13:55:41.434Z,66.63
2022-11-24T13:58:14.589Z,66.13
2022-11-24T14:01:03.845Z,68.65
2022-11-24T14:04:07.190Z,72.45
2022-11-24T14:06:52.742Z,72.70
2022-11-24T14:09:44.670Z,75.47
2022-11-24T14:12:26.829Z,78.80
2022-11-24T14:15:20.647Z,67.32
2022-11-24T14:17:48.221Z,70.80
2022-11-24T14:20:27.485Z,66.90
2022-11-24T14:22:55.251Z,75.60
2022-11-24T14:25:32.085Z,73.75
2022-11-24T14:28:13.527Z,72.05
2022-11-24T14:30:40.888Z,69.00
2022-11-24T14:33:12.926Z,70.10
2022-11-24T14:35:48.127Z,73.68
2022-11-24T14:38:16.101Z,64.75
2022-11-24T14:40:53.234Z,69.13
2022-11-24T14:43:32.805Z,69.95
2022-11-24T14:46:04.624Z,73.03
2022-11-24T14:48:39.869Z,66.45
2022-11-24T14:51:17.252Z,68.57
2022-11-24T14:53:49.206Z,67.93
2022-11-24T14:56:32.967Z,73.22
2022-11-24T14:59:01.352Z,63.63
2022-11-24T15:01:28.590Z,77.65
2022-11-24T15:04:39.313Z,73.53
2022-11-24T15:07:27.148Z,73.68
2022-11-24T15:10:01.915Z,80.45
2022-11-24T15:12:34.874Z,80.68
2022-11-24T15:15:13.839Z,79.55
2022-11-24T15:18:02.736Z,78.90
2022-11-24T15:20:35.297Z,86.85
2022-11-24T15:23:49.189Z,88.88
2022-11-24T15:26:19.505Z,81.22
2022-11-24T15:28:47.179Z,92.25
2022-11-24T15:31:14.983Z,78.30
2022-11-24T15:33:42.647Z,84.50
2022-11-24T15:36:14.109Z,85.82
2022-11-24T15:38:41.483Z,83.18
2022-11-24T15:41:31.757Z,80.28
2022-11-24T15:43:59.504Z,86.55
2022-11-24T15:46:38.046Z,82.22
2022-11-24T15:49:06.693Z,71.22
2022-11-24T15:51:37.281Z,82.78
2022-11-24T15:54:04.586Z,77.57
2022-11-24T15:56:37.780Z,81.25
2022-11-24T15:59:05.329Z,80.30
2022-11-24T16:01:34.458Z,85.65
2022-11-24T16:04:02.873Z,84.03
2022-11-24T16:06:31.090Z,75.72
2022-11-24T16:08:59.162Z,90.82
2022-11-24T16:11:26.973Z,94.35
2022-11-24T16:13:54.572Z,88.00
2022-11-24T16:16:25.354Z,94.18
2022-11-24T16:18:53.040Z,83.53
2022-11-24T16:21:20.648Z,99.38
2022-11-24T16:23:48.854Z,88.70
2022-11-24T16:26:16.403Z,93.32
2022-11-24T16:28:45.308Z,91.65
2022-11-24T16:31:15.830Z,94.10
2022-11-24T16:33:45.440Z,95.38
2022-11-24T16:36:14.505Z,91.55
2022-11-24T16:38:41.848Z,93.40
2022-11-24T16:41:10.689Z,94.10
2022-11-24T16:43:38.754Z,101.32
2022-11-24T16:46:09.269Z,92.60
2022-11-24T16:48:37.192Z,95.95
2022-11-24T16:51:10.201Z,91.78
2022-11-24T16:53:38.139Z,87.65
2022-11-24T16:56:06.458Z,98.38
2022-11-24T16:58:37.473Z,89.03
2022-11-24T17:01:08.129Z,91.75
2022-11-24T17:03:38.981Z,94.03
2022-11-24T17:06:09.762Z,97.65
2022-11-24T17:08:39.663Z,101.22
2022-11-24T17:11:13.520Z,108.88
2022-11-24T17:13:42.615Z,114.20
2022-11-24T17:16:17.055Z,115.15
2022-11-24T17:18:45.852Z,111.32
2022-11-24T17:21:23.305Z,91.80
2022-11-24T17:24:01.423Z,105.22
2022-11-24T17:26:29.032Z,96.57
2022-11-24T17:28:56.979Z,90.32
2022-11-24T17:31:35.863Z,92.53
2022-11-24T17:34:06.475Z,93.07
2022-11-24T17:36:35.624Z,95.35
2022-11-24T17:39:07.158Z,98.28
2022-11-24T17:41:34.799Z,88.50
2022-11-24T17:44:02.883Z,93.95
2022-11-24T17:46:31.400Z,92.78
2022-11-24T17:49:01.799Z,98.75
2022-11-24T17:51:29.130Z,99.10
2022-11-24T17:53:57.664Z,94.47
2022-11-24T17:56:28.205Z,94.45
2022-11-24T17:59:00.040Z,95.28
2022-11-24T18:01:30.240Z,95.60
2022-11-24T18:03:58.696Z,97.15
2022-11-24T18:06:28.675Z,100.47
2022-11-24T18:08:57.908Z,89.55
2022-11-24T18:11:31.410Z,102.30
2022-11-24T18:14:04.458Z,92.68
2022-11-24T18:16:35.030Z,90.45
2022-11-24T18:19:09.181Z,78.15
2022-11-24T18:21:39.283Z,90.18
2022-11-24T18:24:26.036Z,102.85
2022-11-24T18:26:53.373Z,116.78
2022-11-24T18:29:21.657Z,114.43
2022-11-24T18:31:49.000Z,91.43
2022-11-24T18:34:16.618Z,112.20
2022-11-24T18:36:45.264Z,108.78
2022-11-24T18:39:18.004Z,94.38
2022-11-24T18:41:47.498Z,104.22
2022-11-24T18:44:15.212Z,97.65
2022-11-24T18:46:42.468Z,100.03
2022-11-24T18:49:10.688Z,98.88
2022-11-24T18:51:38.567Z,106.78
2022-11-24T18:54:06.476Z,98.88
2022-11-24T18:56:34.079Z,104.22
2022-11-24T18:59:01.832Z,87.05
2022-11-24T19:01:30.086Z,95.40
2022-11-24T19:04:01.851Z,95.50
2022-11-24T19:06:35.462Z,95.85
2022-11-24T19:09:08.217Z,84.22
2022-11-24T19:11:39.138Z,80.78
2022-11-24T19:14:11.972Z,95.45
2022-11-24T19:16:40.115Z,91.65
2022-11-24T19:19:08.728Z,87.78
2022-11-24T19:21:39.262Z,96.55
2022-11-24T19:24:10.875Z,88.43
2022-11-24T19:26:39.219Z,91.13
2022-11-24T19:29:08.012Z,95.72
2022-11-24T19:31:36.035Z,99.25
2022-11-24T19:34:05.445Z,104.60
2022-11-24T19:36:33.097Z,101.95
2022-11-24T19:39:01.025Z,93.63
2022-11-24T19:41:30.996Z,99.53
2022-11-24T19:43:58.877Z,101.22
2022-11-24T19:46:29.849Z,105.60
2022-11-24T19:49:01.645Z,107.43
2022-11-24T19:51:39.857Z,117.70
2022-11-24T19:54:12.859Z,105.82
2022-11-24T19:56:41.384Z,107.32
2022-11-24T19:59:13.995Z,105.00
2022-11-24T20:01:42.635Z,101.35
2022-11-24T20:04:15.640Z,88.75
2022-11-24T20:06:47.671Z,93.18
2022-11-24T20:09:18.644Z,102.43
2022-11-24T20:11:46.840Z,96.10
2022-11-24T20:14:18.863Z,98.03
2022-11-24T20:16:48.271Z,96.97
2022-11-24T20:19:18.062Z,94.10
2022-11-24T20:21:47.889Z,106.00
2022-11-24T20:24:24.790Z,97.53
2022-11-24T20:27:00.149Z,107.35
2022-11-24T20:29:29.292Z,126.45
2022-11-24T20:31:57.216Z,114.32
2022-11-24T20:34:26.450Z,113.95
2022-11-24T20:36:53.733Z,110.95
2022-11-24T20:39:26.514Z,123.95
2022-11-24T20:41:56.116Z,124.75
2022-11-24T20:44:26.605Z,106.55
2022-11-24T20:46:58.219Z,118.20
2022-11-24T20:49:26.962Z,136.57
2022-11-24T20:51:57.566Z,136.30
2022-11-24T20:54:25.630Z,131.20
2022-11-24T20:56:52.905Z,113.15
2022-11-24T20:59:24.101Z,129.82
2022-11-24T21:01:55.260Z,120.32
2022-11-24T21:04:26.862Z,132.38
2022-11-24T21:06:54.737Z,118.13
2022-11-24T21:09:22.408Z,118.60
2022-11-24T21:11:49.751Z,122.00
2022-11-24T21:14:27.436Z,128.15
2022-11-24T21:16:56.270Z,127.28
2022-11-24T21:19:23.862Z,134.35
2022-11-24T21:21:51.098Z,129.57
2022-11-24T21:24:21.845Z,127.28
2022-11-24T21:26:51.857Z,131.70
2022-11-24T21:29:22.470Z,99.80
2022-11-24T21:31:50.056Z,127.22
2022-11-24T21:34:19.257Z,132.73
2022-11-24T21:36:47.332Z,122.00
2022-11-24T21:39:15.990Z,120.95
2022-11-24T21:41:43.829Z,125.93
2022-11-24T21:44:13.510Z,122.53
2022-11-24T21:46:49.502Z,126.53
2022-11-24T21:49:20.079Z,112.05
2022-11-24T21:51:47.780Z,123.57
2022-11-24T21:54:15.237Z,127.22
2022-11-24T21:56:42.669Z,123.13
2022-11-24T21:59:10.302Z,162.80
2022-11-24T22:01:37.613Z,141.65
2022-11-24T22:04:05.449Z,158.25
2022-11-24T22:06:33.426Z,162.55
2022-11-24T22:09:00.965Z,165.55
2022-11-24T22:11:28.246Z,173.27
2022-11-24T22:13:55.855Z,176.70
2022-11-24T22:16:24.729Z,172.40
2022-11-24T22:18:52.882Z,169.90
2022-11-24T22:21:24.341Z,171.93
2022-11-24T22:23:52.966Z,172.52
2022-11-24T22:26:23.385Z,190.73
2022-11-24T22:28:52.235Z,190.63
2022-11-24T22:31:26.137Z,184.30
2022-11-24T22:33:55.055Z,192.57
2022-11-24T22:36:27.373Z,199.63
2022-11-24T22:39:03.079Z,192.02
2022-11-24T22:41:33.553Z,195.65
2022-11-24T22:44:01.317Z,215.48
2022-11-24T22:46:30.920Z,198.63
2022-11-24T22:49:01.770Z,203.13
2022-11-24T22:51:34.706Z,184.20
2022-11-24T22:54:05.693Z,210.02
2022-11-24T22:56:34.107Z,220.77
2022-11-24T22:59:04.704Z,216.70
2022-11-24T23:01:36.599Z,209.30
2022-11-24T23:04:04.440Z,222.27
2022-11-24T23:06:33.457Z,225.50
2022-11-24T23:09:04.240Z,216.52
2022-11-24T23:11:38.417Z,200.73
2022-11-24T23:14:13.203Z,215.77
2022-11-24T23:16:41.102Z,211.20
2022-11-24T23:19:09.060Z,215.20
2022-11-24T23:21:38.901Z,205.27
2022-11-24T23:24:08.642Z,211.95
2022-11-24T23:26:39.863Z,215.18
2022-11-24T23:29:08.344Z,217.50
2022-11-24T23:31:36.413Z,225.55
2022-11-24T23:34:04.553Z,205.77
2022-11-24T23:36:33.341Z,207.65
2022-11-24T23:39:08.599Z,197.75
2022-11-24T23:41:36.233Z,206.75
2022-11-24T23:44:04.290Z,206.20
2022-11-24T23:46:32.259Z,195.38
2022-11-24T23:48:59.839Z,215.13
2022-11-24T23:51:32.574Z,185.32
2022-11-24T23:54:01.229Z,197.38
2022-11-24T23:56:32.964Z,195.35
2022-11-24T23:59:03.942Z,167.43
